Terminal Aerodrome Forecast
Issued by NWS

Home | Current Version | Previous Version | Text Only | Print | Product List | Glossary Off
Versions: 1 2 3 4 5 6 7 8 9 10 11 12 13 14 15

403
FTUS43 KMPX 110303 AAA
TAFRWF
TAF AMD
KRWF 110303Z 1103/1124 18004KT P6SM BKN110
     FM111000 27010KT P6SM BKN110
     FM111500 31014G23KT P6SM VCSH OVC020
     FM111900 33018G27KT P6SM BKN025=

USA.gov is the U.S. government's official web portal to all federal, state and local government web resources and services.